Time;durP1;ratioP1;P1;durP2;ratioP2;P2;SDS_P1;SDS_P2;PMS_P1;PMS_P2;Temp;Humidity;BMP_temperature;BMP_pressure;BME280_temperature;BME280_humidity;BME280_pressure;Samples;Min_cycle;Max_cycle;Signal;HPM_P1;HPM_P2
2023/05/15 00:00:55;;;;;;;8.82;4.70;;;;;;;14.65;70.10;99639.53;5024263;28;20049;-76
2023/05/15 00:03:21;;;;;;;9.02;4.78;;;;;;;14.68;69.79;99638.94;5024504;28;20053;-76
2023/05/15 00:05:46;;;;;;;9.13;4.88;;;;;;;14.67;70.13;99637.28;5024322;28;20120;-76
2023/05/15 00:08:11;;;;;;;9.65;5.72;;;;;;;14.67;70.31;99642.78;5024113;28;20056;-76
2023/05/15 00:10:36;;;;;;;8.77;4.65;;;;;;;14.63;70.46;99639.81;5024374;28;20116;-76
2023/05/15 00:13:02;;;;;;;8.93;4.83;;;;;;;14.68;70.65;99637.03;5024136;28;20038;-77
2023/05/15 00:15:27;;;;;;;8.23;5.03;;;;;;;14.86;69.59;99628.28;5024282;28;20275;-76
2023/05/15 00:17:52;;;;;;;8.55;4.82;;;;;;;14.96;69.10;99628.13;5023569;28;20266;-76
2023/05/15 00:20:18;;;;;;;9.47;5.20;;;;;;;14.90;69.44;99634.81;5024292;28;20467;-76
2023/05/15 00:22:43;;;;;;;7.88;5.22;;;;;;;14.81;69.75;99632.72;5024405;28;20254;-76
2023/05/15 00:25:09;;;;;;;9.10;5.80;;;;;;;14.86;69.79;99633.78;5024112;28;20448;-76
2023/05/15 00:27:35;;;;;;;8.23;5.00;;;;;;;14.82;69.94;99631.63;5024299;28;20121;-76
2023/05/15 00:30:00;;;;;;;8.00;5.43;;;;;;;14.92;69.60;99627.09;5023529;28;20715;-76
2023/05/15 00:32:25;;;;;;;8.27;4.80;;;;;;;14.96;69.35;99627.31;5024260;28;20029;-77
2023/05/15 00:34:50;;;;;;;9.23;5.40;;;;;;;14.97;69.37;99627.00;5023928;28;20029;-76
2023/05/15 00:37:16;;;;;;;14.60;5.30;;;;;;;14.95;69.47;99626.50;5023602;28;20286;-76
2023/05/15 00:39:41;;;;;;;9.40;4.75;;;;;;;14.89;69.89;99628.50;5023394;28;20033;-75
2023/05/15 00:42:07;;;;;;;8.70;5.70;;;;;;;14.85;69.78;99627.47;5023439;28;20033;-76
2023/05/15 00:44:33;;;;;;;8.48;5.35;;;;;;;14.84;70.25;99622.28;5023703;28;20109;-76
2023/05/15 00:47:01;;;;;;;9.18;5.65;;;;;;;14.92;69.76;99621.63;5023502;28;20666;-76
2023/05/15 00:49:28;;;;;;;8.55;4.95;;;;;;;14.98;69.61;99619.59;5023013;28;20609;-76
2023/05/15 00:51:55;;;;;;;12.82;5.45;;;;;;;15.03;69.38;99620.34;5023276;28;20022;-76
2023/05/15 00:54:20;;;;;;;16.80;6.22;;;;;;;15.07;69.15;99611.53;5023363;28;20544;-76
2023/05/15 00:56:46;;;;;;;9.88;6.10;;;;;;;14.88;69.63;99623.31;5023402;28;20034;-76
2023/05/15 00:59:12;;;;;;;10.13;5.90;;;;;;;14.88;69.96;99617.84;5023081;28;20099;-76
2023/05/15 01:01:38;;;;;;;16.85;7.55;;;;;;;14.87;70.03;99616.22;5023847;28;20129;-76
2023/05/15 01:04:03;;;;;;;10.98;6.32;;;;;;;14.87;69.94;99614.25;5023253;28;20043;-76
2023/05/15 01:06:30;;;;;;;12.18;6.80;;;;;;;14.92;70.04;99605.16;5023331;28;20029;-76
2023/05/15 01:08:58;;;;;;;12.38;7.10;;;;;;;14.87;69.84;99597.78;5022677;28;20534;-76
2023/05/15 01:11:26;;;;;;;10.77;6.15;;;;;;;14.76;70.63;99597.13;5023583;28;20068;-76
2023/05/15 01:13:51;;;;;;;21.73;8.60;;;;;;;14.79;70.27;99591.03;5023104;28;20052;-76
2023/05/15 01:16:20;;;;;;;15.55;8.40;;;;;;;14.71;70.39;99594.44;5022823;28;20049;-76
2023/05/15 01:18:45;;;;;;;11.35;8.20;;;;;;;14.56;70.99;99599.03;5022741;28;20041;-76
2023/05/15 01:21:33;;;;;;;13.43;8.03;;;;;;;14.51;71.54;99596.38;5023015;28;20071;-76
2023/05/15 01:24:07;;;;;;;13.90;8.95;;;;;;;14.40;72.51;99597.63;5021066;28;20668;-76
2023/05/15 01:27:20;;;;;;;17.42;11.20;;;;;;;14.43;72.41;99594.28;5023130;28;20041;-76
2023/05/15 01:30:10;;;;;;;15.45;9.25;;;;;;;14.45;72.57;99592.06;4979949;28;20595;-76
2023/05/15 01:32:42;;;;;;;15.90;9.25;;;;;;;14.55;72.68;99591.94;5022893;28;21005;-76
2023/05/15 01:35:13;;;;;;;11.32;8.23;;;;;;;14.63;72.56;99592.34;5022848;28;20056;-76
2023/05/15 01:37:48;;;;;;;16.30;9.15;;;;;;;14.57;73.12;99594.38;5023003;28;20073;-76
2023/05/15 01:40:16;;;;;;;16.15;9.98;;;;;;;14.72;72.50;99593.34;5022136;28;20116;-76
2023/05/15 01:42:50;;;;;;;24.38;10.60;;;;;;;14.66;72.62;99587.13;5022752;28;20092;-77
2023/05/15 01:45:16;;;;;;;;;;;;;;;14.53;72.87;99587.84;5023216;28;20120;-76
2023/05/15 01:47:45;;;;;;;16.30;10.88;;;;;;;14.49;73.67;99587.63;5022493;28;20349;-76
2023/05/15 01:50:13;;;;;;;18.05;10.35;;;;;;;14.47;73.67;99584.34;5021745;28;20091;-76
2023/05/15 01:52:42;;;;;;;22.13;13.10;;;;;;;14.38;74.23;99580.66;5022116;28;20490;-76
2023/05/15 01:55:08;;;;;;;18.25;11.27;;;;;;;14.43;74.42;99583.31;5022017;28;20029;-76
2023/05/15 01:57:35;;;;;;;19.75;11.07;;;;;;;14.39;74.03;99594.06;5022412;28;20150;-76
2023/05/15 02:00:02;;;;;;;19.25;11.27;;;;;;;14.41;74.58;99585.53;5021601;28;20120;-76
2023/05/15 02:02:28;;;;;;;16.67;9.75;;;;;;;14.49;74.28;99587.63;5022370;28;20041;-76
2023/05/15 02:04:55;;;;;;;17.63;11.55;;;;;;;14.39;74.28;99595.97;5022196;28;20056;-76
2023/05/15 02:07:21;;;;;;;18.02;10.73;;;;;;;14.27;74.66;99599.97;5021878;28;20033;-76
2023/05/15 02:09:47;;;;;;;18.50;10.57;;;;;;;14.23;74.71;99598.94;5021665;28;20855;-76
2023/05/15 02:12:13;;;;;;;18.80;11.88;;;;;;;14.16;74.39;99595.72;5021449;28;20034;-76
2023/05/15 02:14:39;;;;;;;19.70;10.15;;;;;;;13.99;75.03;99586.06;5021898;28;20082;-76
2023/05/15 02:17:05;;;;;;;15.05;10.50;;;;;;;13.94;75.18;99594.31;5021927;28;20061;-76
2023/05/15 02:19:30;;;;;;;18.35;10.43;;;;;;;13.84;75.06;99589.78;5021526;28;20127;-76
2023/05/15 02:21:56;;;;;;;21.88;12.85;;;;;;;13.77;75.78;99579.16;5021824;28;20484;-76
2023/05/15 02:24:21;;;;;;;17.40;10.70;;;;;;;13.69;77.12;99580.63;5021979;28;20129;-76
2023/05/15 02:26:58;;;;;;;28.60;14.50;;;;;;;13.73;75.91;99578.13;5021714;28;20453;-76
2023/05/15 02:29:30;;;;;;;22.45;13.02;;;;;;;13.68;76.81;99583.66;5021484;28;20286;-76
2023/05/15 02:32:02;;;;;;;23.50;14.70;;;;;;;13.68;77.14;99589.13;5021596;28;20403;-76
2023/05/15 02:34:43;;;;;;;29.58;15.02;;;;;;;13.65;77.72;99591.34;5021915;28;20037;-76
2023/05/15 02:37:13;;;;;;;23.75;14.70;;;;;;;13.68;78.37;99586.41;5022024;28;20032;-76
2023/05/15 02:39:41;;;;;;;28.85;16.63;;;;;;;13.68;77.98;99587.22;5021187;28;20033;-76
2023/05/15 02:42:06;;;;;;;30.08;18.02;;;;;;;13.68;78.27;99594.63;5021226;28;20041;-76
2023/05/15 02:44:35;;;;;;;34.40;17.85;;;;;;;13.69;77.98;99594.31;5021742;28;20037;-76
2023/05/15 02:47:01;;;;;;;30.10;18.50;;;;;;;13.72;78.50;99588.28;5021548;28;21101;-76
2023/05/15 02:49:26;;;;;;;27.52;17.23;;;;;;;13.86;78.60;99582.91;5021279;28;20034;-76
2023/05/15 02:51:51;;;;;;;33.40;18.00;;;;;;;13.96;77.96;99592.13;5021585;28;20044;-76
2023/05/15 02:54:17;;;;;;;32.73;18.00;;;;;;;13.92;77.88;99591.06;5021588;28;20247;-77
2023/05/15 02:56:42;;;;;;;30.00;17.90;;;;;;;13.86;78.31;99585.66;5021750;28;20274;-76
2023/05/15 02:59:07;;;;;;;33.47;19.07;;;;;;;13.92;78.51;99585.59;5021000;28;20522;-75
2023/05/15 03:01:33;;;;;;;29.58;17.77;;;;;;;13.91;79.00;99589.44;5021536;28;20285;-75
2023/05/15 03:03:58;;;;;;;38.37;20.30;;;;;;;13.97;79.52;99588.28;5021162;28;20040;-75
2023/05/15 03:06:23;;;;;;;43.30;24.10;;;;;;;14.06;80.00;99596.66;5021716;28;20259;-75
2023/05/15 03:08:48;;;;;;;50.90;21.80;;;;;;;14.26;80.14;99583.81;5020894;28;20037;-75
2023/05/15 03:11:14;;;;;;;47.87;26.27;;;;;;;14.40;79.88;99581.97;5021338;28;20274;-76
2023/05/15 03:13:39;;;;;;;49.63;26.65;;;;;;;14.40;80.06;99584.72;5021185;28;20274;-75
2023/05/15 03:16:04;;;;;;;46.00;24.07;;;;;;;14.46;80.27;99594.50;5021006;28;20183;-76
2023/05/15 03:18:30;;;;;;;39.63;19.67;;;;;;;14.45;80.03;99592.06;5020752;28;20287;-75
2023/05/15 03:20:55;;;;;;;24.33;15.00;;;;;;;14.40;79.43;99592.16;5021179;28;20094;-75
2023/05/15 03:23:20;;;;;;;21.03;12.27;;;;;;;14.30;78.92;99591.16;5021329;28;20748;-75
2023/05/15 03:25:46;;;;;;;17.47;11.47;;;;;;;14.33;78.71;99589.75;5024946;28;20262;-75
2023/05/15 03:28:11;;;;;;;19.02;11.30;;;;;;;14.33;78.58;99592.50;5024510;28;20349;-76
2023/05/15 03:30:36;;;;;;;27.05;12.80;;;;;;;14.43;78.29;99594.28;5024976;28;20071;-75
2023/05/15 03:33:02;;;;;;;25.37;13.50;;;;;;;14.38;78.26;99591.63;5024899;28;20156;-76
2023/05/15 03:35:28;;;;;;;31.23;13.75;;;;;;;14.37;78.31;99590.78;5025209;28;20663;-76
2023/05/15 03:37:54;;;;;;;29.00;15.02;;;;;;;14.34;78.27;99583.16;5024353;28;20083;-75
2023/05/15 03:40:19;;;;;;;40.83;16.50;;;;;;;14.37;78.12;99596.28;5024824;28;20112;-75
2023/05/15 03:42:44;;;;;;;36.10;17.40;;;;;;;14.50;78.25;99597.50;5025148;28;20040;-75
2023/05/15 03:45:10;;;;;;;37.78;19.13;;;;;;;14.48;78.40;99600.50;5024681;28;20267;-75
2023/05/15 03:47:35;;;;;;;52.80;22.13;;;;;;;14.46;78.87;99593.72;5025005;28;20044;-75
2023/05/15 03:50:00;;;;;;;57.40;22.60;;;;;;;14.51;79.75;99599.09;5024092;28;20483;-75
2023/05/15 03:52:26;;;;;;;51.20;25.65;;;;;;;14.49;79.72;99595.84;5024961;28;20277;-76
2023/05/15 03:54:51;;;;;;;54.78;26.75;;;;;;;14.59;79.97;99603.13;5024713;28;20033;-76
2023/05/15 03:57:16;;;;;;;63.92;26.63;;;;;;;14.61;79.80;99605.56;5024633;28;20091;-76
2023/05/15 03:59:42;;;;;;;48.88;24.95;;;;;;;14.61;80.13;99600.06;5024173;28;20470;-75
2023/05/15 04:02:07;;;;;;;50.38;25.30;;;;;;;14.52;80.50;99595.25;5024359;28;20112;-76
2023/05/15 04:04:32;;;;;;;53.80;24.37;;;;;;;14.50;80.37;99599.41;5024524;28;20041;-76
2023/05/15 04:06:58;;;;;;;59.42;25.15;;;;;;;14.62;79.68;99596.22;5024102;28;20298;-75
2023/05/15 04:09:23;;;;;;;51.38;23.95;;;;;;;14.64;79.83;99594.81;5024069;28;20502;-75
2023/05/15 04:11:48;;;;;;;54.43;25.17;;;;;;;14.59;80.19;99606.69;5022763;28;20033;-76
2023/05/15 04:14:13;;;;;;;44.73;21.10;;;;;;;14.43;81.23;99594.28;5024190;28;20251;-75
2023/05/15 04:16:39;;;;;;;47.97;23.20;;;;;;;14.49;80.68;99593.09;5023887;28;20271;-75
2023/05/15 04:19:05;;;;;;;48.17;24.67;;;;;;;14.66;79.79;99586.28;5023278;28;20258;-76
2023/05/15 04:21:30;;;;;;;49.97;24.05;;;;;;;14.59;80.52;99598.44;5024363;28;20041;-75
2023/05/15 04:23:55;;;;;;;44.20;21.43;;;;;;;14.58;80.71;99591.31;5023970;28;20521;-76
2023/05/15 04:26:20;;;;;;;42.97;20.63;;;;;;;14.47;81.21;99589.84;5024028;28;20266;-75
2023/05/15 04:28:46;;;;;;;48.47;23.13;;;;;;;14.53;80.91;99599.63;5023411;28;20312;-75
2023/05/15 04:31:11;;;;;;;49.73;22.47;;;;;;;14.64;80.57;99594.00;5023772;28;20334;-75
2023/05/15 04:33:38;;;;;;;56.17;27.10;;;;;;;14.75;80.37;99595.47;5023937;28;20267;-76
2023/05/15 04:36:04;;;;;;;56.70;24.92;;;;;;;14.68;80.57;99593.13;5022921;28;20691;-76
2023/05/15 04:38:30;;;;;;;52.50;26.50;;;;;;;14.81;80.41;99594.28;5023267;28;20087;-76
2023/05/15 04:40:55;;;;;;;49.15;23.42;;;;;;;14.89;80.13;99595.56;5023526;28;20037;-76
2023/05/15 04:43:20;;;;;;;45.77;24.20;;;;;;;14.90;79.93;99590.91;5024037;28;20406;-76
2023/05/15 04:45:45;;;;;;;42.43;22.97;;;;;;;14.72;80.32;99596.09;5023437;28;20279;-76
2023/05/15 04:48:11;;;;;;;52.35;27.70;;;;;;;14.69;80.48;99592.00;5023003;28;20259;-76
2023/05/15 04:50:36;;;;;;;46.17;23.70;;;;;;;14.82;80.19;99595.94;5023380;28;20048;-76
2023/05/15 04:53:02;;;;;;;55.00;25.33;;;;;;;14.86;79.87;99587.13;5023614;28;20320;-76
2023/05/15 04:55:27;;;;;;;49.75;25.02;;;;;;;14.74;80.23;99587.56;5023746;28;20262;-76
2023/05/15 04:57:52;;;;;;;44.03;23.47;;;;;;;14.69;80.73;99588.44;5023019;28;20156;-76
2023/05/15 05:00:18;;;;;;;50.87;26.53;;;;;;;14.72;80.54;99593.34;5023503;28;20341;-76
2023/05/15 05:02:43;;;;;;;57.70;31.50;;;;;;;14.81;79.97;99599.78;5023362;28;20286;-75
2023/05/15 05:05:08;;;;;;;56.38;28.55;;;;;;;14.66;80.00;99602.75;5023333;28;20259;-75
2023/05/15 05:07:34;;;;;;;62.88;30.88;;;;;;;14.62;80.25;99593.47;5023694;28;20045;-76
2023/05/15 05:10:00;;;;;;;60.67;31.40;;;;;;;14.56;80.34;99604.50;5022915;28;20037;-76
2023/05/15 05:12:25;;;;;;;52.67;29.80;;;;;;;14.48;80.72;99596.97;5023425;28;20095;-75
2023/05/15 05:14:50;;;;;;;60.85;31.80;;;;;;;14.54;80.31;99587.53;5022974;28;20128;-75
2023/05/15 05:17:16;;;;;;;64.20;31.30;;;;;;;14.57;79.92;99592.44;5023123;28;20029;-75
2023/05/15 05:19:41;;;;;;;61.78;31.65;;;;;;;14.59;80.16;99590.22;5022737;28;20266;-76
2023/05/15 05:22:07;;;;;;;69.03;35.67;;;;;;;14.73;79.29;99592.22;5021473;28;20029;-75
2023/05/15 05:24:36;;;;;;;66.93;32.15;;;;;;;14.66;79.51;99594.53;5022459;28;20030;-76
2023/05/15 05:27:02;;;;;;;55.33;32.63;;;;;;;14.59;80.05;99592.97;5023021;28;20093;-77
2023/05/15 05:29:29;;;;;;;62.47;33.42;;;;;;;14.67;80.05;99594.22;5023356;28;20368;-77
2023/05/15 05:31:54;;;;;;;60.28;33.92;;;;;;;14.53;79.84;99596.88;5022774;28;20495;-76
2023/05/15 05:34:20;;;;;;;52.97;30.92;;;;;;;14.59;79.85;99592.16;5023463;28;20116;-76
2023/05/15 05:36:45;;;;;;;56.92;31.90;;;;;;;14.67;79.63;99594.22;5023321;28;20037;-74
2023/05/15 05:39:10;;;;;;;58.70;30.80;;;;;;;14.63;79.63;99597.84;5023492;28;20498;-75
2023/05/15 05:41:36;;;;;;;56.80;30.37;;;;;;;14.66;79.56;99600.00;5023014;28;20464;-76
2023/05/15 05:44:01;;;;;;;60.53;30.73;;;;;;;14.72;79.28;99604.31;5022748;28;20263;-73
2023/05/15 05:46:27;;;;;;;61.60;29.67;;;;;;;14.62;79.50;99601.72;5019937;28;20041;-74
2023/05/15 05:48:52;;;;;;;53.58;27.20;;;;;;;14.46;79.80;99604.69;5021956;28;20176;-74
2023/05/15 05:51:17;;;;;;;69.17;33.63;;;;;;;14.61;79.38;99606.38;5020980;28;20042;-77
2023/05/15 05:53:42;;;;;;;57.23;29.03;;;;;;;14.68;79.10;99611.50;5022391;28;21575;-74
2023/05/15 05:56:08;;;;;;;49.70;26.47;;;;;;;14.69;78.87;99607.63;5022177;28;20251;-75
2023/05/15 05:58:33;;;;;;;51.13;27.00;;;;;;;14.53;79.33;99607.88;5021038;28;20340;-75
2023/05/15 06:00:59;;;;;;;50.90;27.83;;;;;;;14.64;78.83;99607.72;5022240;28;20033;-75
2023/05/15 06:03:25;;;;;;;56.58;30.60;;;;;;;14.61;78.84;99605.56;5022568;28;20631;-75
2023/05/15 06:05:51;;;;;;;68.95;35.08;;;;;;;14.58;79.04;99610.53;5022108;28;20597;-75
2023/05/15 06:08:17;;;;;;;64.82;34.95;;;;;;;14.58;79.06;99606.97;5021711;28;20052;-75
2023/05/15 06:10:42;;;;;;;80.75;37.58;;;;;;;14.76;78.14;99602.63;5022305;28;20022;-75
2023/05/15 06:13:07;;;;;;;70.00;38.60;;;;;;;14.72;78.13;99612.53;5022098;28;20036;-75
2023/05/15 06:15:33;;;;;;;76.40;38.88;;;;;;;14.72;78.11;99607.06;5022204;28;20077;-75
2023/05/15 06:17:58;;;;;;;78.78;40.45;;;;;;;14.77;78.34;99609.72;5021697;28;20029;-76
2023/05/15 06:20:24;;;;;;;93.75;42.22;;;;;;;14.68;78.55;99608.75;5021782;28;20120;-75
2023/05/15 06:22:49;;;;;;;81.88;39.55;;;;;;;14.82;78.68;99617.06;5021918;28;20497;-75
2023/05/15 06:25:14;;;;;;;83.45;41.55;;;;;;;14.87;77.81;99624.44;5021745;28;20035;-76
2023/05/15 06:27:40;;;;;;;90.80;44.15;;;;;;;14.83;78.48;99618.72;5021851;28;20590;-76
2023/05/15 06:30:07;;;;;;;97.63;44.38;;;;;;;14.85;78.46;99621.19;5021034;28;20029;-76
2023/05/15 06:32:32;;;;;;;91.15;42.42;;;;;;;14.99;78.12;99611.06;5022366;28;20025;-77
2023/05/15 06:34:58;;;;;;;92.40;43.67;;;;;;;14.77;77.84;99617.94;5022073;28;20059;-76
2023/05/15 06:37:23;;;;;;;101.43;46.25;;;;;;;14.72;78.66;99623.53;5022360;28;20275;-75
2023/05/15 06:39:48;;;;;;;102.55;45.53;;;;;;;14.85;78.10;99618.44;5022055;28;20692;-76
2023/05/15 06:42:14;;;;;;;82.60;40.13;;;;;;;15.01;77.69;99630.78;5022400;28;20033;-76
2023/05/15 06:44:39;;;;;;;92.82;45.00;;;;;;;14.97;77.44;99624.28;5022102;28;20258;-76
2023/05/15 06:47:04;;;;;;;95.05;43.00;;;;;;;15.03;77.49;99617.59;5022468;28;20056;-77
2023/05/15 06:49:30;;;;;;;89.88;41.38;;;;;;;15.07;77.46;99625.25;5022135;28;20495;-76
2023/05/15 06:51:55;;;;;;;89.87;44.80;;;;;;;15.21;77.19;99623.38;5022012;28;20491;-75
2023/05/15 06:54:20;;;;;;;88.22;40.05;;;;;;;15.19;76.79;99622.84;5022023;28;20285;-76
2023/05/15 06:56:46;;;;;;;87.53;41.25;;;;;;;15.17;76.90;99622.34;5021667;28;20041;-75
2023/05/15 06:59:11;;;;;;;92.45;41.38;;;;;;;15.13;77.38;99624.06;5020508;28;20056;-76
2023/05/15 07:01:37;;;;;;;89.63;46.65;;;;;;;15.28;76.61;99623.78;5022125;28;20040;-76
2023/05/15 07:04:02;;;;;;;84.53;39.92;;;;;;;15.32;76.35;99628.66;5022086;28;20288;-76
2023/05/15 07:06:28;;;;;;;100.57;43.65;;;;;;;15.23;76.72;99628.56;5022447;28;20464;-76
2023/05/15 07:08:53;;;;;;;90.40;43.50;;;;;;;15.29;76.66;99630.09;5021938;28;20537;-75
2023/05/15 07:11:18;;;;;;;89.68;43.80;;;;;;;15.24;76.79;99633.75;5022199;28;20120;-75
2023/05/15 07:13:44;;;;;;;100.90;50.90;;;;;;;15.56;75.85;99627.75;5021921;28;20112;-77
2023/05/15 07:16:10;;;;;;;88.47;44.70;;;;;;;15.50;75.54;99627.00;5021959;28;20279;-76
2023/05/15 07:18:35;;;;;;;96.95;44.80;;;;;;;15.36;75.91;99638.75;5021806;28;20044;-77
2023/05/15 07:21:01;;;;;;;100.95;44.47;;;;;;;15.51;76.07;99642.38;5022092;28;20041;-75
2023/05/15 07:23:26;;;;;;;96.40;44.38;;;;;;;15.22;76.43;99637.91;5022405;28;20507;-75
2023/05/15 07:25:53;;;;;;;94.90;46.10;;;;;;;15.15;76.73;99641.03;5022238;28;20375;-75
2023/05/15 07:28:19;;;;;;;104.13;47.13;;;;;;;15.19;77.05;99641.25;5021739;28;20251;-76
2023/05/15 07:30:44;;;;;;;99.97;45.45;;;;;;;15.00;77.18;99647.56;5022162;28;20730;-75
2023/05/15 07:33:09;;;;;;;112.55;46.47;;;;;;;15.09;77.34;99643.06;5022140;28;20042;-75
2023/05/15 07:35:34;;;;;;;100.95;49.95;;;;;;;15.17;77.21;99649.78;5022384;28;20033;-77
2023/05/15 07:38:00;;;;;;;98.17;43.80;;;;;;;15.09;77.15;99642.22;5022033;28;21426;-76
2023/05/15 07:40:25;;;;;;;104.70;47.15;;;;;;;14.86;77.45;99651.06;5021990;28;20255;-77
2023/05/15 07:42:50;;;;;;;116.25;50.75;;;;;;;14.66;78.70;99646.66;5022152;28;20139;-75
2023/05/15 07:45:16;;;;;;;97.37;45.63;;;;;;;14.90;77.95;99640.31;5022001;28;20474;-75
2023/05/15 07:47:45;;;;;;;93.13;43.88;;;;;;;14.87;77.72;99643.66;5022105;28;20271;-76
2023/05/15 07:50:11;;;;;;;94.35;45.35;;;;;;;14.76;78.18;99634.72;5021655;28;20041;-75
2023/05/15 07:52:36;;;;;;;85.95;42.25;;;;;;;14.87;77.84;99630.72;5021649;28;21249;-76
2023/05/15 07:55:03;;;;;;;89.00;44.70;;;;;;;14.96;77.60;99632.81;5021556;28;20672;-77
2023/05/15 07:57:28;;;;;;;90.80;42.92;;;;;;;15.20;76.83;99637.38;5022046;28;20297;-77
2023/05/15 07:59:54;;;;;;;83.20;41.67;;;;;;;15.31;76.32;99627.06;5021293;28;20045;-75
2023/05/15 08:02:19;;;;;;;84.22;40.17;;;;;;;15.32;75.87;99632.25;5021970;28;20063;-76
2023/05/15 08:04:44;;;;;;;82.38;43.95;;;;;;;15.34;75.85;99629.19;5020748;28;20038;-76
2023/05/15 08:07:12;;;;;;;80.68;42.45;;;;;;;15.24;75.25;99633.75;5021825;28;20043;-76
2023/05/15 08:09:38;;;;;;;81.10;43.35;;;;;;;15.23;75.36;99632.13;5022062;28;20091;-76
2023/05/15 08:12:19;;;;;;;78.43;40.47;;;;;;;15.53;74.51;99626.41;5025056;28;20030;-76
2023/05/15 08:14:44;;;;;;;77.00;42.95;;;;;;;15.83;73.74;99626.13;5025218;28;20258;-76
2023/05/15 08:17:10;;;;;;;77.40;39.83;;;;;;;15.91;73.50;99627.38;5025053;28;20030;-76
2023/05/15 08:19:35;;;;;;;76.13;40.83;;;;;;;16.23;72.59;99625.69;5024902;28;20490;-76
2023/05/15 08:22:00;;;;;;;74.07;39.33;;;;;;;16.35;71.46;99627.91;5024515;28;20251;-76
2023/05/15 08:24:25;;;;;;;71.83;38.37;;;;;;;16.36;71.09;99618.53;5025073;28;20259;-76
2023/05/15 08:26:50;;;;;;;65.07;35.50;;;;;;;16.39;70.15;99622.63;5024750;28;20620;-77
2023/05/15 08:29:16;;;;;;;64.40;36.17;;;;;;;16.32;70.60;99620.28;5024491;28;20472;-77
2023/05/15 08:31:41;;;;;;;65.93;38.65;;;;;;;16.26;70.65;99613.25;5024667;28;20274;-76
2023/05/15 08:34:07;;;;;;;72.40;36.90;;;;;;;16.36;70.42;99617.72;5024578;28;20041;-76
2023/05/15 08:36:32;;;;;;;72.93;34.90;;;;;;;16.30;70.75;99617.00;5025110;28;20275;-83
2023/05/15 08:38:57;;;;;;;62.60;34.47;;;;;;;16.37;71.14;99622.09;5025145;28;20314;-87
2023/05/15 08:41:35;;;;;;;66.57;37.50;;;;;;;16.40;70.15;99614.03;5024321;28;20474;-77
2023/05/15 08:44:03;;;;;;;63.40;34.38;;;;;;;16.35;70.45;99619.66;5023813;28;20342;-76
2023/05/15 08:46:30;;;;;;;68.35;34.65;;;;;;;16.51;70.13;99622.09;5023101;28;20068;-76
2023/05/15 08:48:56;;;;;;;58.58;35.03;;;;;;;16.41;70.04;99618.44;5023971;28;20445;-78
2023/05/15 08:51:23;;;;;;;56.28;32.58;;;;;;;16.43;70.43;99612.63;5024290;28;20506;-75
2023/05/15 08:53:49;;;;;;;61.63;33.00;;;;;;;16.72;70.27;99622.44;5023935;28;21144;-78
2023/05/15 08:56:15;;;;;;;60.03;32.75;;;;;;;16.63;69.77;99614.13;5024495;28;20455;-76
2023/05/15 08:58:41;;;;;;;52.17;33.05;;;;;;;16.81;69.22;99608.75;5023742;28;20060;-77
2023/05/15 09:01:06;;;;;;;56.95;32.35;;;;;;;17.04;68.55;99611.53;5024271;28;20723;-77
2023/05/15 09:03:32;;;;;;;46.60;28.17;;;;;;;17.05;67.79;99607.63;5024412;28;20037;-77
2023/05/15 09:05:57;;;;;;;40.03;24.87;;;;;;;16.98;66.60;99610.03;5023893;28;20041;-77
2023/05/15 09:08:24;;;;;;;38.45;21.98;;;;;;;17.04;66.91;99612.31;5024130;28;20252;-78
2023/05/15 09:10:51;;;;;;;38.97;20.88;;;;;;;17.00;66.41;99605.03;5023868;28;20479;-78
2023/05/15 09:13:16;;;;;;;34.78;23.02;;;;;;;17.26;65.97;99609.94;5024328;28;20053;-76
2023/05/15 09:15:42;;;;;;;42.20;23.80;;;;;;;17.23;65.75;99605.03;5023840;28;20490;-76
2023/05/15 09:18:07;;;;;;;30.08;20.20;;;;;;;17.32;65.93;99611.44;5023639;28;20313;-76
2023/05/15 09:20:35;;;;;;;31.88;19.90;;;;;;;17.44;65.34;99612.78;5023985;28;20025;-78
2023/05/15 09:23:02;;;;;;;30.60;19.50;;;;;;;17.52;65.41;99602.94;5023365;28;20039;-78
2023/05/15 09:25:41;;;;;;;29.92;20.02;;;;;;;17.49;63.89;99607.94;5023770;28;20463;-78
2023/05/15 09:28:10;;;;;;;33.60;18.50;;;;;;;17.52;64.64;99603.75;5023056;28;20167;-76
2023/05/15 09:30:41;;;;;;;27.92;18.85;;;;;;;17.82;63.16;99606.81;5023612;28;20029;-76
2023/05/15 09:33:08;;;;;;;26.13;17.27;;;;;;;18.04;61.96;99602.34;5022652;28;20037;-76
2023/05/15 09:35:37;;;;;;;43.33;18.00;;;;;;;18.14;61.42;99597.69;5023730;28;20041;-76
2023/05/15 09:38:08;;;;;;;27.75;15.23;;;;;;;18.31;61.95;99600.50;5023523;28;20025;-75
2023/05/15 09:40:33;;;;;;;22.60;14.18;;;;;;;18.22;61.38;99602.47;5022624;28;20068;-77
2023/05/15 09:42:58;;;;;;;25.15;15.95;;;;;;;18.26;61.22;99597.91;5023629;28;20061;-75
2023/05/15 09:45:25;;;;;;;24.52;16.30;;;;;;;18.29;60.79;99600.03;5024027;28;20061;-76
2023/05/15 09:47:51;;;;;;;22.40;14.80;;;;;;;18.34;60.96;99603.78;5023213;28;20037;-77
2023/05/15 09:50:31;;;;;;;23.60;13.80;;;;;;;18.08;60.64;99599.78;5022921;28;20107;-75
2023/05/15 09:52:58;;;;;;;21.90;13.70;;;;;;;18.07;60.51;99604.50;5023037;28;20033;-76
2023/05/15 09:55:23;;;;;;;19.88;13.98;;;;;;;18.15;61.26;99605.63;5023038;28;20675;-76
2023/05/15 09:58:09;;;;;;;22.77;13.93;;;;;;;18.28;60.28;99600.34;5023436;28;20120;-77
2023/05/15 10:00:35;;;;;;;23.85;15.82;;;;;;;18.25;60.07;99607.31;5023057;28;20318;-77
2023/05/15 10:03:02;;;;;;;25.33;14.57;;;;;;;18.28;59.90;99598.41;5022888;28;20037;-78
2023/05/15 10:05:28;;;;;;;20.17;14.75;;;;;;;18.26;60.52;99603.44;5023175;28;20035;-77
2023/05/15 10:07:57;;;;;;;23.88;14.32;;;;;;;18.29;59.28;99594.50;5022501;28;20116;-77
2023/05/15 10:10:23;;;;;;;23.05;15.65;;;;;;;18.44;59.57;99600.72;5023148;28;20068;-77
2023/05/15 10:12:53;;;;;;;24.30;15.27;;;;;;;18.41;59.74;99590.28;5023053;28;20057;-76
2023/05/15 10:15:20;;;;;;;23.15;15.30;;;;;;;18.57;60.18;99589.84;5022505;28;20049;-77
2023/05/15 10:17:49;;;;;;;34.75;19.00;;;;;;;18.58;59.68;99591.47;5022410;28;20076;-76
2023/05/15 10:20:16;;;;;;;27.63;15.38;;;;;;;18.84;59.25;99585.94;5020661;28;20131;-75
2023/05/15 10:22:49;;;;;;;25.08;16.98;;;;;;;18.94;57.94;99581.22;5022007;28;20053;-76
2023/05/15 10:25:22;;;;;;;28.65;17.17;;;;;;;19.08;58.42;99586.59;5022061;28;20029;-76
2023/05/15 10:27:50;;;;;;;22.83;13.65;;;;;;;19.19;57.99;99582.38;5021787;28;20037;-75
2023/05/15 10:30:16;;;;;;;19.58;12.55;;;;;;;19.35;57.43;99587.38;5021663;28;20750;-77
2023/05/15 10:32:44;;;;;;;19.80;13.82;;;;;;;19.42;56.22;99587.69;5022342;28;20030;-76
2023/05/15 10:35:10;;;;;;;25.08;14.07;;;;;;;19.35;55.98;99585.44;5022321;28;20025;-75
2023/05/15 10:37:37;;;;;;;19.77;12.07;;;;;;;19.40;54.84;99573.38;5022418;28;20112;-76
2023/05/15 10:40:09;;;;;;;17.10;10.57;;;;;;;19.63;55.76;99578.66;5022181;28;20076;-76
2023/05/15 10:42:35;;;;;;;19.63;11.02;;;;;;;19.74;55.18;99567.25;5022949;28;20068;-77
2023/05/15 10:45:01;;;;;;;16.25;9.93;;;;;;;19.87;54.96;99571.72;5022113;28;20029;-76
2023/05/15 10:47:29;;;;;;;18.45;10.57;;;;;;;20.01;53.72;99571.53;5022307;28;20692;-77
2023/05/15 10:49:55;;;;;;;18.77;11.25;;;;;;;20.15;53.50;99570.50;5021590;28;20154;-76
2023/05/15 10:52:20;;;;;;;21.75;12.30;;;;;;;20.03;53.12;99557.34;5022310;28;20485;-77
2023/05/15 10:54:46;;;;;;;19.85;11.50;;;;;;;20.14;53.53;99564.13;5022105;28;20041;-77
2023/05/15 10:57:13;;;;;;;19.85;12.23;;;;;;;20.09;53.02;99550.50;5021699;28;20043;-77
2023/05/15 10:59:40;;;;;;;20.20;10.40;;;;;;;20.18;52.62;99553.19;5021321;28;20061;-76
2023/05/15 11:02:25;;;;;;;17.45;9.02;;;;;;;20.34;52.06;99547.88;5022049;28;20456;-77
2023/05/15 11:04:58;;;;;;;19.55;8.80;;;;;;;20.51;51.75;99551.69;5022109;28;20048;-76
2023/05/15 11:07:24;;;;;;;14.90;8.90;;;;;;;20.51;50.39;99557.22;5022021;28;20495;-76
2023/05/15 11:09:51;;;;;;;14.90;9.07;;;;;;;20.56;50.70;99547.91;5021471;28;21188;-76
2023/05/15 11:12:17;;;;;;;13.68;8.90;;;;;;;20.66;50.50;99547.50;5022208;28;20091;-76
2023/05/15 11:14:54;;;;;;;17.80;7.72;;;;;;;20.76;49.04;99547.09;5021727;28;20041;-75
2023/05/15 11:17:22;;;;;;;13.27;8.32;;;;;;;20.73;48.92;99546.94;5022170;28;20048;-76